sensor_id;sensor_type;location;lat;lon;timestamp;pressure;altitude;pressure_sealevel;temperature;humidity
31183;BME280;17813;0.000;0.000;2023-07-02T00:02:14;98424.34;;;20.06;72.47
31183;BME280;17813;0.000;0.000;2023-07-02T00:04:47;98425.66;;;20.10;72.42
31183;BME280;17813;0.000;0.000;2023-07-02T00:07:23;98415.75;;;20.10;72.22
31183;BME280;17813;0.000;0.000;2023-07-02T00:09:58;98426.38;;;20.04;72.57
31183;BME280;17813;0.000;0.000;2023-07-02T00:12:32;98420.00;;;20.05;73.15
31183;BME280;17813;0.000;0.000;2023-07-02T00:15:05;98424.72;;;20.03;72.90
31183;BME280;17813;0.000;0.000;2023-07-02T00:17:35;98428.25;;;20.03;73.13
31183;BME280;17813;0.000;0.000;2023-07-02T00:20:07;98424.06;;;20.01;73.04
31183;BME280;17813;0.000;0.000;2023-07-02T00:22:39;98428.25;;;20.03;73.05
31183;BME280;17813;0.000;0.000;2023-07-02T00:25:10;98422.69;;;20.05;73.26
31183;BME280;17813;0.000;0.000;2023-07-02T00:27:40;98429.09;;;20.04;73.56
31183;BME280;17813;0.000;0.000;2023-07-02T00:30:13;98423.88;;;20.02;73.35
31183;BME280;17813;0.000;0.000;2023-07-02T00:32:45;98419.34;;;20.03;73.24
31183;BME280;17813;0.000;0.000;2023-07-02T00:35:14;98419.03;;;19.98;73.47
31183;BME280;17813;0.000;0.000;2023-07-02T00:37:42;98414.00;;;19.95;73.58
31183;BME280;17813;0.000;0.000;2023-07-02T00:40:13;98418.56;;;19.94;73.64
31183;BME280;17813;0.000;0.000;2023-07-02T00:42:43;98417.06;;;19.91;73.99
31183;BME280;17813;0.000;0.000;2023-07-02T00:45:16;98424.66;;;19.88;74.23
31183;BME280;17813;0.000;0.000;2023-07-02T00:47:47;98416.72;;;19.95;74.33
31183;BME280;17813;0.000;0.000;2023-07-02T00:50:23;98423.75;;;19.96;74.03
31183;BME280;17813;0.000;0.000;2023-07-02T00:52:53;98423.03;;;20.02;74.14
31183;BME280;17813;0.000;0.000;2023-07-02T00:55:24;98419.44;;;20.09;73.97
31183;BME280;17813;0.000;0.000;2023-07-02T00:57:55;98420.94;;;20.12;73.90
31183;BME280;17813;0.000;0.000;2023-07-02T01:00:26;98422.63;;;20.13;73.94
31183;BME280;17813;0.000;0.000;2023-07-02T01:02:56;98420.94;;;20.12;73.76
31183;BME280;17813;0.000;0.000;2023-07-02T01:05:30;98421.31;;;20.09;73.82
31183;BME280;17813;0.000;0.000;2023-07-02T01:08:10;98419.03;;;19.98;74.02
31183;BME280;17813;0.000;0.000;2023-07-02T01:10:41;98415.56;;;19.89;74.49
31183;BME280;17813;0.000;0.000;2023-07-02T01:13:19;98420.53;;;19.77;74.69
31183;BME280;17813;0.000;0.000;2023-07-02T01:15:52;98414.78;;;19.80;74.92
31183;BME280;17813;0.000;0.000;2023-07-02T01:18:23;98407.75;;;19.79;74.71
31183;BME280;17813;0.000;0.000;2023-07-02T01:20:54;98410.97;;;19.75;74.73
31183;BME280;17813;0.000;0.000;2023-07-02T01:23:25;98416.34;;;19.75;75.04
31183;BME280;17813;0.000;0.000;2023-07-02T01:25:55;98410.13;;;19.74;75.09
31183;BME280;17813;0.000;0.000;2023-07-02T01:28:35;98408.34;;;19.67;74.80
31183;BME280;17813;0.000;0.000;2023-07-02T01:31:07;98400.75;;;19.70;75.24
31183;BME280;17813;0.000;0.000;2023-07-02T01:33:40;98404.97;;;19.65;75.79
31183;BME280;17813;0.000;0.000;2023-07-02T01:36:11;98404.97;;;19.65;75.82
31183;BME280;17813;0.000;0.000;2023-07-02T01:38:41;98401.75;;;19.69;75.56
31183;BME280;17813;0.000;0.000;2023-07-02T01:41:12;98411.81;;;19.75;75.48
31183;BME280;17813;0.000;0.000;2023-07-02T01:43:43;98408.75;;;19.78;75.27
31183;BME280;17813;0.000;0.000;2023-07-02T01:46:14;98415.16;;;19.77;74.75
31183;BME280;17813;0.000;0.000;2023-07-02T01:48:44;98402.00;;;19.82;74.94
31183;BME280;17813;0.000;0.000;2023-07-02T01:51:14;98418.81;;;19.84;75.01
31183;BME280;17813;0.000;0.000;2023-07-02T01:53:46;98413.78;;;19.81;74.58
31183;BME280;17813;0.000;0.000;2023-07-02T01:56:14;98415.63;;;19.81;74.53
31183;BME280;17813;0.000;0.000;2023-07-02T01:58:44;98420.53;;;19.77;74.72
31183;BME280;17813;0.000;0.000;2023-07-02T02:01:15;98415.50;;;19.74;74.57
31183;BME280;17813;0.000;0.000;2023-07-02T02:03:44;98423.28;;;19.69;74.78
31183;BME280;17813;0.000;0.000;2023-07-02T02:06:15;98426.31;;;19.66;75.00
31183;BME280;17813;0.000;0.000;2023-07-02T02:08:44;98427.03;;;19.60;75.70
31183;BME280;17813;0.000;0.000;2023-07-02T02:11:12;98432.06;;;19.63;75.44
31183;BME280;17813;0.000;0.000;2023-07-02T02:13:39;98427.50;;;19.64;75.25
31183;BME280;17813;0.000;0.000;2023-07-02T02:16:08;98429.38;;;19.63;75.23
31183;BME280;17813;0.000;0.000;2023-07-02T02:18:39;98437.78;;;19.60;75.58
31183;BME280;17813;0.000;0.000;2023-07-02T02:21:14;98434.63;;;19.56;75.22
31183;BME280;17813;0.000;0.000;2023-07-02T02:23:45;98431.41;;;19.61;75.26
31183;BME280;17813;0.000;0.000;2023-07-02T02:26:17;98437.59;;;19.62;75.18
31183;BME280;17813;0.000;0.000;2023-07-02T02:28:46;98437.25;;;19.65;75.08
31183;BME280;17813;0.000;0.000;2023-07-02T02:31:17;98434.38;;;19.66;74.98
31183;BME280;17813;0.000;0.000;2023-07-02T02:33:49;98435.41;;;19.65;75.15
31183;BME280;17813;0.000;0.000;2023-07-02T02:36:18;98437.06;;;19.66;74.85
31183;BME280;17813;0.000;0.000;2023-07-02T02:38:49;98433.38;;;19.67;74.84
31183;BME280;17813;0.000;0.000;2023-07-02T02:41:20;98443.78;;;19.70;74.67
31183;BME280;17813;0.000;0.000;2023-07-02T02:43:53;98440.78;;;19.65;74.47
31183;BME280;17813;0.000;0.000;2023-07-02T02:46:27;98440.91;;;19.72;74.64
31183;BME280;17813;0.000;0.000;2023-07-02T02:48:57;98441.22;;;19.77;74.73
31183;BME280;17813;0.000;0.000;2023-07-02T02:51:29;98436.97;;;19.82;74.44
31183;BME280;17813;0.000;0.000;2023-07-02T02:53:57;98438.47;;;19.85;74.20
31183;BME280;17813;0.000;0.000;2023-07-02T02:56:27;98439.97;;;19.87;73.99
31183;BME280;17813;0.000;0.000;2023-07-02T02:58:59;98440.63;;;19.89;74.24
31183;BME280;17813;0.000;0.000;2023-07-02T03:01:29;98445.66;;;19.92;74.21
31183;BME280;17813;0.000;0.000;2023-07-02T03:04:02;98452.69;;;19.94;74.13
31183;BME280;17813;0.000;0.000;2023-07-02T03:06:33;98462.63;;;19.93;73.98
31183;BME280;17813;0.000;0.000;2023-07-02T03:09:06;98454.25;;;19.88;74.29
31183;BME280;17813;0.000;0.000;2023-07-02T03:11:37;98457.59;;;19.90;74.24
31183;BME280;17813;0.000;0.000;2023-07-02T03:14:07;98467.84;;;19.95;73.82
31183;BME280;17813;0.000;0.000;2023-07-02T03:16:40;98468.72;;;19.87;73.68
31183;BME280;17813;0.000;0.000;2023-07-02T03:19:13;98462.56;;;19.78;72.86
31183;BME280;17813;0.000;0.000;2023-07-02T03:21:45;98465.28;;;19.70;72.88
31183;BME280;17813;0.000;0.000;2023-07-02T03:24:15;98466.00;;;19.64;72.90
31183;BME280;17813;0.000;0.000;2023-07-02T03:26:50;98474.28;;;19.46;72.94
31183;BME280;17813;0.000;0.000;2023-07-02T03:29:24;98477.34;;;19.43;73.20
31183;BME280;17813;0.000;0.000;2023-07-02T03:32:01;98481.56;;;19.38;73.22
31183;BME280;17813;0.000;0.000;2023-07-02T03:34:33;98489.94;;;19.43;73.29
31183;BME280;17813;0.000;0.000;2023-07-02T03:37:08;98483.91;;;19.41;73.66
31183;BME280;17813;0.000;0.000;2023-07-02T03:39:41;98480.38;;;19.40;73.48
31183;BME280;17813;0.000;0.000;2023-07-02T03:42:12;98477.84;;;19.39;73.32
31183;BME280;17813;0.000;0.000;2023-07-02T03:44:42;98484.25;;;19.38;73.53
31183;BME280;17813;0.000;0.000;2023-07-02T03:47:11;98489.97;;;19.35;73.55
31183;BME280;17813;0.000;0.000;2023-07-02T03:49:47;98493.00;;;19.32;73.81
31183;BME280;17813;0.000;0.000;2023-07-02T03:52:22;98500.22;;;19.39;73.06
31183;BME280;17813;0.000;0.000;2023-07-02T03:54:52;98497.16;;;19.42;72.49
31183;BME280;17813;0.000;0.000;2023-07-02T03:57:21;98493.66;;;19.42;72.14
31183;BME280;17813;0.000;0.000;2023-07-02T03:59:52;98494.81;;;19.39;71.85
31183;BME280;17813;0.000;0.000;2023-07-02T04:02:20;98499.25;;;19.24;72.20
31183;BME280;17813;0.000;0.000;2023-07-02T04:04:51;98504.97;;;19.21;71.96
31183;BME280;17813;0.000;0.000;2023-07-02T04:07:23;98501.78;;;19.17;72.20
31183;BME280;17813;0.000;0.000;2023-07-02T04:10:02;98506.00;;;19.12;72.42
31183;BME280;17813;0.000;0.000;2023-07-02T04:12:33;98519.94;;;19.15;72.27
31183;BME280;17813;0.000;0.000;2023-07-02T04:15:05;98515.41;;;19.16;72.32
31183;BME280;17813;0.000;0.000;2023-07-02T04:17:36;98524.13;;;19.18;72.42
31183;BME280;17813;0.000;0.000;2023-07-02T04:20:07;98521.78;;;19.23;72.30
31183;BME280;17813;0.000;0.000;2023-07-02T04:22:42;98525.97;;;19.25;72.17
31183;BME280;17813;0.000;0.000;2023-07-02T04:25:16;98531.19;;;19.19;72.11
31183;BME280;17813;0.000;0.000;2023-07-02T04:27:48;98527.50;;;19.20;72.30
31183;BME280;17813;0.000;0.000;2023-07-02T04:30:22;98529.00;;;19.22;72.55
31183;BME280;17813;0.000;0.000;2023-07-02T04:32:53;98535.69;;;19.26;72.45
31183;BME280;17813;0.000;0.000;2023-07-02T04:35:29;98538.56;;;19.25;72.63
31183;BME280;17813;0.000;0.000;2023-07-02T04:38:03;98539.75;;;19.22;72.60
31183;BME280;17813;0.000;0.000;2023-07-02T04:40:36;98546.28;;;19.28;72.36
31183;BME280;17813;0.000;0.000;2023-07-02T04:43:08;98538.50;;;19.41;72.42
31183;BME280;17813;0.000;0.000;2023-07-02T04:45:40;98544.03;;;19.56;72.42
31183;BME280;17813;0.000;0.000;2023-07-02T04:48:14;98540.59;;;19.70;71.80
31183;BME280;17813;0.000;0.000;2023-07-02T04:50:44;98546.97;;;19.77;71.30
31183;BME280;17813;0.000;0.000;2023-07-02T04:53:15;98550.34;;;19.71;70.84
31183;BME280;17813;0.000;0.000;2023-07-02T04:55:44;98551.38;;;19.70;70.94
31183;BME280;17813;0.000;0.000;2023-07-02T04:58:14;98554.53;;;19.74;71.38
31183;BME280;17813;0.000;0.000;2023-07-02T05:00:43;98552.81;;;19.81;71.27
31183;BME280;17813;0.000;0.000;2023-07-02T05:03:14;98552.78;;;19.89;70.95
31183;BME280;17813;0.000;0.000;2023-07-02T05:05:47;98560.34;;;19.94;71.14
31183;BME280;17813;0.000;0.000;2023-07-02T05:08:15;98557.81;;;19.92;71.03
31183;BME280;17813;0.000;0.000;2023-07-02T05:10:46;98567.91;;;19.90;70.49
31183;BME280;17813;0.000;0.000;2023-07-02T05:13:21;98561.06;;;19.79;70.25
31183;BME280;17813;0.000;0.000;2023-07-02T05:15:52;98565.47;;;19.72;70.97
31183;BME280;17813;0.000;0.000;2023-07-02T05:18:20;98566.31;;;19.73;70.93
31183;BME280;17813;0.000;0.000;2023-07-02T05:20:53;98564.63;;;19.72;70.71
31183;BME280;17813;0.000;0.000;2023-07-02T05:23:26;98558.44;;;19.71;71.11
31183;BME280;17813;0.000;0.000;2023-07-02T05:25:56;98562.63;;;19.74;71.28
31183;BME280;17813;0.000;0.000;2023-07-02T05:28:30;98565.59;;;19.87;71.04
31183;BME280;17813;0.000;0.000;2023-07-02T05:31:00;98555.22;;;20.07;70.74
31183;BME280;17813;0.000;0.000;2023-07-02T05:33:34;98565.88;;;20.23;70.49
31183;BME280;17813;0.000;0.000;2023-07-02T05:36:12;98570.34;;;20.39;70.17
31183;BME280;17813;0.000;0.000;2023-07-02T05:38:47;98562.69;;;20.50;70.10
31183;BME280;17813;0.000;0.000;2023-07-02T05:41:26;98570.66;;;20.67;69.88
31183;BME280;17813;0.000;0.000;2023-07-02T05:43:59;98563.34;;;20.75;69.56
31183;BME280;17813;0.000;0.000;2023-07-02T05:46:32;98569.16;;;20.87;69.59
31183;BME280;17813;0.000;0.000;2023-07-02T05:49:08;98565.03;;;21.14;69.61
31183;BME280;17813;0.000;0.000;2023-07-02T05:51:42;98574.66;;;21.46;69.42
31183;BME280;17813;0.000;0.000;2023-07-02T05:54:11;98571.13;;;21.75;68.87
31183;BME280;17813;0.000;0.000;2023-07-02T05:56:45;98568.59;;;22.03;68.23
31183;BME280;17813;0.000;0.000;2023-07-02T05:59:13;98572.34;;;22.81;66.84
31183;BME280;17813;0.000;0.000;2023-07-02T06:01:49;98571.91;;;23.33;64.45
31183;BME280;17813;0.000;0.000;2023-07-02T06:04:22;98566.91;;;23.58;63.30
31183;BME280;17813;0.000;0.000;2023-07-02T06:06:55;98569.47;;;23.66;61.54
31183;BME280;17813;0.000;0.000;2023-07-02T06:09:26;98571.13;;;23.67;62.25
31183;BME280;17813;0.000;0.000;2023-07-02T06:12:00;98573.81;;;23.60;60.30
31183;BME280;17813;0.000;0.000;2023-07-02T06:14:37;98577.84;;;23.78;61.17
31183;BME280;17813;0.000;0.000;2023-07-02T06:17:10;98575.84;;;23.93;60.17
31183;BME280;17813;0.000;0.000;2023-07-02T06:19:47;98581.00;;;23.81;58.75
31183;BME280;17813;0.000;0.000;2023-07-02T06:22:16;98580.47;;;23.64;58.61
31183;BME280;17813;0.000;0.000;2023-07-02T06:24:44;98587.41;;;23.46;58.79
31183;BME280;17813;0.000;0.000;2023-07-02T06:27:15;98587.81;;;23.42;58.88
31183;BME280;17813;0.000;0.000;2023-07-02T06:29:44;98581.81;;;23.82;57.97
31183;BME280;17813;0.000;0.000;2023-07-02T06:32:24;98572.81;;;24.22;56.94
31183;BME280;17813;0.000;0.000;2023-07-02T06:34:54;98576.63;;;24.34;57.06
31183;BME280;17813;0.000;0.000;2023-07-02T06:37:32;98576.91;;;24.59;54.83
31183;BME280;17813;0.000;0.000;2023-07-02T06:40:00;98578.78;;;24.72;53.82
31183;BME280;17813;0.000;0.000;2023-07-02T06:42:30;98567.72;;;24.60;53.32
31183;BME280;17813;0.000;0.000;2023-07-02T06:45:06;98564.25;;;24.19;52.42
31183;BME280;17813;0.000;0.000;2023-07-02T06:47:35;98571.59;;;23.77;53.23
31183;BME280;17813;0.000;0.000;2023-07-02T06:50:06;98578.56;;;23.58;54.72
31183;BME280;17813;0.000;0.000;2023-07-02T06:52:42;98578.19;;;23.40;55.59
31183;BME280;17813;0.000;0.000;2023-07-02T06:55:14;98572.59;;;23.14;55.20
31183;BME280;17813;0.000;0.000;2023-07-02T06:57:44;98576.72;;;22.82;54.82
31183;BME280;17813;0.000;0.000;2023-07-02T07:00:17;98585.94;;;22.72;55.73
31183;BME280;17813;0.000;0.000;2023-07-02T07:02:50;98597.00;;;22.77;56.73
31183;BME280;17813;0.000;0.000;2023-07-02T07:05:21;98593.38;;;22.85;57.10
31183;BME280;17813;0.000;0.000;2023-07-02T07:07:56;98592.47;;;22.99;56.14
31183;BME280;17813;0.000;0.000;2023-07-02T07:10:37;98594.34;;;23.27;55.43
31183;BME280;17813;0.000;0.000;2023-07-02T07:13:13;98594.75;;;23.86;54.73
31183;BME280;17813;0.000;0.000;2023-07-02T07:15:48;98589.63;;;24.72;50.71
31183;BME280;17813;0.000;0.000;2023-07-02T07:18:27;98580.66;;;25.57;49.04
31183;BME280;17813;0.000;0.000;2023-07-02T07:21:02;98587.84;;;26.54;47.56
31183;BME280;17813;0.000;0.000;2023-07-02T07:23:34;98597.28;;;27.15;43.74
31183;BME280;17813;0.000;0.000;2023-07-02T07:26:06;98585.53;;;27.64;43.92
31183;BME280;17813;0.000;0.000;2023-07-02T07:28:38;98576.06;;;28.52;44.67
31183;BME280;17813;0.000;0.000;2023-07-02T07:31:15;98580.09;;;28.79;40.52
31183;BME280;17813;0.000;0.000;2023-07-02T07:33:47;98580.59;;;29.64;41.03
31183;BME280;17813;0.000;0.000;2023-07-02T07:36:23;98581.81;;;30.77;38.23
31183;BME280;17813;0.000;0.000;2023-07-02T07:38:52;98572.66;;;31.89;36.80
31183;BME280;17813;0.000;0.000;2023-07-02T07:41:27;98567.47;;;32.58;34.68
31183;BME280;17813;0.000;0.000;2023-07-02T07:44:05;98568.88;;;33.19;33.56
31183;BME280;17813;0.000;0.000;2023-07-02T07:46:37;98555.75;;;33.69;32.18
31183;BME280;17813;0.000;0.000;2023-07-02T07:49:13;98557.16;;;33.76;31.37
31183;BME280;17813;0.000;0.000;2023-07-02T07:51:48;98555.19;;;34.09;30.31
31183;BME280;17813;0.000;0.000;2023-07-02T07:54:22;98548.03;;;34.08;29.05
31183;BME280;17813;0.000;0.000;2023-07-02T07:57:01;98552.44;;;34.09;28.71
31183;BME280;17813;0.000;0.000;2023-07-02T07:59:43;98544.94;;;34.92;28.67
31183;BME280;17813;0.000;0.000;2023-07-02T08:02:22;98549.34;;;34.83;26.83
31183;BME280;17813;0.000;0.000;2023-07-02T08:04:55;98557.50;;;34.42;28.22
31183;BME280;17813;0.000;0.000;2023-07-02T08:07:26;98549.63;;;35.02;27.26
31183;BME280;17813;0.000;0.000;2023-07-02T08:10:06;98556.44;;;35.70;28.05
31183;BME280;17813;0.000;0.000;2023-07-02T08:12:39;98553.19;;;35.38;24.53
31183;BME280;17813;0.000;0.000;2023-07-02T08:15:11;98571.81;;;36.02;24.85
31183;BME280;17813;0.000;0.000;2023-07-02T08:17:44;98572.16;;;35.85;24.45
31183;BME280;17813;0.000;0.000;2023-07-02T08:20:14;98576.31;;;35.67;24.35
31183;BME280;17813;0.000;0.000;2023-07-02T08:22:47;98582.13;;;35.05;24.40
31183;BME280;17813;0.000;0.000;2023-07-02T08:25:25;98577.59;;;34.38;24.89
31183;BME280;17813;0.000;0.000;2023-07-02T08:28:02;98574.00;;;34.32;25.89
31183;BME280;17813;0.000;0.000;2023-07-02T08:30:35;98589.47;;;34.48;26.22
31183;BME280;17813;0.000;0.000;2023-07-02T08:33:10;98583.50;;;35.07;24.50
31183;BME280;17813;0.000;0.000;2023-07-02T08:35:48;98581.84;;;35.22;25.39
31183;BME280;17813;0.000;0.000;2023-07-02T08:38:17;98592.59;;;35.13;25.47
31183;BME280;17813;0.000;0.000;2023-07-02T08:40:53;98583.75;;;35.62;24.80
31183;BME280;17813;0.000;0.000;2023-07-02T08:43:30;98587.63;;;34.85;24.60
31183;BME280;17813;0.000;0.000;2023-07-02T08:45:59;98578.72;;;34.47;26.05
31183;BME280;17813;0.000;0.000;2023-07-02T08:48:35;98591.53;;;33.74;25.74
31183;BME280;17813;0.000;0.000;2023-07-02T08:51:11;98590.78;;;32.82;26.85
31183;BME280;17813;0.000;0.000;2023-07-02T08:53:40;98590.06;;;33.24;27.63
31183;BME280;17813;0.000;0.000;2023-07-02T08:56:14;98592.16;;;33.44;27.22
31183;BME280;17813;0.000;0.000;2023-07-02T08:58:48;98587.19;;;33.41;25.76
31183;BME280;17813;0.000;0.000;2023-07-02T09:01:22;98598.44;;;32.53;26.95
31183;BME280;17813;0.000;0.000;2023-07-02T09:04:18;98596.53;;;32.10;27.58
31183;BME280;17813;0.000;0.000;2023-07-02T09:07:07;98599.06;;;31.95;27.67
31183;BME280;17813;0.000;0.000;2023-07-02T09:09:48;98608.25;;;32.06;28.03
31183;BME280;17813;0.000;0.000;2023-07-02T09:12:28;98603.28;;;32.46;27.38
31183;BME280;17813;0.000;0.000;2023-07-02T09:15:06;98607.97;;;33.64;26.02
31183;BME280;17813;0.000;0.000;2023-07-02T09:17:41;98601.13;;;35.01;25.92
31183;BME280;17813;0.000;0.000;2023-07-02T09:20:33;98598.03;;;34.72;24.11
31183;BME280;17813;0.000;0.000;2023-07-02T09:23:05;98604.44;;;34.88;24.55
31183;BME280;17813;0.000;0.000;2023-07-02T09:25:41;98619.81;;;33.32;24.89
31183;BME280;17813;0.000;0.000;2023-07-02T09:28:22;98609.47;;;32.15;26.29
31183;BME280;17813;0.000;0.000;2023-07-02T09:30:57;98627.56;;;31.10;28.41
31183;BME280;17813;0.000;0.000;2023-07-02T09:33:29;98632.31;;;30.29;29.09
31183;BME280;17813;0.000;0.000;2023-07-02T09:36:04;98637.59;;;29.72;29.81
31183;BME280;17813;0.000;0.000;2023-07-02T09:38:46;98630.94;;;29.92;29.96
31183;BME280;17813;0.000;0.000;2023-07-02T09:41:21;98624.25;;;30.51;29.86
31183;BME280;17813;0.000;0.000;2023-07-02T09:44:04;98622.47;;;31.81;29.40
31183;BME280;17813;0.000;0.000;2023-07-02T09:46:53;98624.34;;;33.16;27.86
31183;BME280;17813;0.000;0.000;2023-07-02T09:49:42;98601.66;;;34.05;26.34
31183;BME280;17813;0.000;0.000;2023-07-02T09:52:20;98613.50;;;33.32;26.14
31183;BME280;17813;0.000;0.000;2023-07-02T09:54:48;98625.75;;;32.43;26.78
31183;BME280;17813;0.000;0.000;2023-07-02T09:57:19;98623.75;;;31.11;28.20
31183;BME280;17813;0.000;0.000;2023-07-02T09:59:55;98631.88;;;30.09;29.28
31183;BME280;17813;0.000;0.000;2023-07-02T10:02:32;98637.19;;;29.22;30.88
31183;BME280;17813;0.000;0.000;2023-07-02T10:05:02;98640.66;;;28.88;31.53
31183;BME280;17813;0.000;0.000;2023-07-02T10:07:32;98640.44;;;28.89;32.71
31183;BME280;17813;0.000;0.000;2023-07-02T10:10:02;98635.94;;;29.48;31.77
31183;BME280;17813;0.000;0.000;2023-07-02T10:12:46;98640.56;;;30.06;30.75
31183;BME280;17813;0.000;0.000;2023-07-02T10:15:25;98648.16;;;29.81;30.58
31183;BME280;17813;0.000;0.000;2023-07-02T10:17:59;98644.31;;;29.23;30.91
31183;BME280;17813;0.000;0.000;2023-07-02T10:20:40;98648.50;;;28.47;32.00
31183;BME280;17813;0.000;0.000;2023-07-02T10:23:09;98654.19;;;27.91;31.95
31183;BME280;17813;0.000;0.000;2023-07-02T10:25:40;98654.94;;;27.80;32.76
31183;BME280;17813;0.000;0.000;2023-07-02T10:28:20;98661.75;;;28.07;33.18
31183;BME280;17813;0.000;0.000;2023-07-02T10:31:01;98651.31;;;29.19;31.72
31183;BME280;17813;0.000;0.000;2023-07-02T10:33:44;98653.97;;;28.96;31.77
31183;BME280;17813;0.000;0.000;2023-07-02T10:36:27;98645.97;;;29.24;32.39
31183;BME280;17813;0.000;0.000;2023-07-02T10:39:03;98646.50;;;29.91;32.43
31183;BME280;17813;0.000;0.000;2023-07-02T10:41:38;98640.31;;;30.88;31.50
31183;BME280;17813;0.000;0.000;2023-07-02T10:44:16;98634.34;;;31.36;30.74
31183;BME280;17813;0.000;0.000;2023-07-02T10:46:50;98636.00;;;31.54;30.10
31183;BME280;17813;0.000;0.000;2023-07-02T10:49:31;98648.31;;;31.06;27.38
31183;BME280;17813;0.000;0.000;2023-07-02T10:52:10;98642.47;;;30.86;28.74
31183;BME280;17813;0.000;0.000;2023-07-02T10:54:46;98649.13;;;30.50;28.17
31183;BME280;17813;0.000;0.000;2023-07-02T10:57:19;98656.25;;;29.75;29.10
31183;BME280;17813;0.000;0.000;2023-07-02T11:00:07;98655.69;;;29.20;30.26
31183;BME280;17813;0.000;0.000;2023-07-02T11:02:43;98653.13;;;28.47;29.92
31183;BME280;17813;0.000;0.000;2023-07-02T11:05:32;98656.00;;;28.52;31.52
31183;BME280;17813;0.000;0.000;2023-07-02T11:08:08;98653.94;;;28.84;31.44
31183;BME280;17813;0.000;0.000;2023-07-02T11:10:44;98657.84;;;29.30;30.84
31183;BME280;17813;0.000;0.000;2023-07-02T11:13:24;98655.78;;;29.67;30.71
31183;BME280;17813;0.000;0.000;2023-07-02T11:16:21;98655.16;;;30.00;29.43
31183;BME280;17813;0.000;0.000;2023-07-02T11:19:09;98649.50;;;30.01;29.24
31183;BME280;17813;0.000;0.000;2023-07-02T11:21:51;98659.53;;;30.24;29.91
31183;BME280;17813;0.000;0.000;2023-07-02T11:27:06;98643.16;;;29.89;29.76
31183;BME280;17813;0.000;0.000;2023-07-02T11:29:40;98644.84;;;29.43;29.96
31183;BME280;17813;0.000;0.000;2023-07-02T11:32:20;98653.94;;;29.26;30.76
31183;BME280;17813;0.000;0.000;2023-07-02T11:34:54;98649.72;;;28.70;30.40
31183;BME280;17813;0.000;0.000;2023-07-02T11:37:30;98660.34;;;28.41;31.59
31183;BME280;17813;0.000;0.000;2023-07-02T11:40:05;98667.78;;;28.34;32.01
31183;BME280;17813;0.000;0.000;2023-07-02T11:42:41;98666.53;;;28.12;31.56
31183;BME280;17813;0.000;0.000;2023-07-02T11:45:17;98666.69;;;27.99;31.79
31183;BME280;17813;0.000;0.000;2023-07-02T11:47:50;98679.34;;;28.11;31.52
31183;BME280;17813;0.000;0.000;2023-07-02T11:50:33;98681.66;;;27.90;31.92
31183;BME280;17813;0.000;0.000;2023-07-02T11:53:09;98676.91;;;27.60;32.33
31183;BME280;17813;0.000;0.000;2023-07-02T11:55:49;98680.06;;;27.57;32.07
31183;BME280;17813;0.000;0.000;2023-07-02T11:58:42;98673.78;;;27.57;31.78
31183;BME280;17813;0.000;0.000;2023-07-02T12:01:15;98677.47;;;27.69;32.22
31183;BME280;17813;0.000;0.000;2023-07-02T12:03:48;98677.13;;;28.02;32.09
31183;BME280;17813;0.000;0.000;2023-07-02T12:06:19;98665.47;;;28.68;30.83
31183;BME280;17813;0.000;0.000;2023-07-02T12:08:55;98666.78;;;28.65;30.83
31183;BME280;17813;0.000;0.000;2023-07-02T12:11:32;98671.47;;;28.40;31.02
31183;BME280;17813;0.000;0.000;2023-07-02T12:14:05;98674.81;;;28.42;30.62
31183;BME280;17813;0.000;0.000;2023-07-02T12:16:42;98666.44;;;28.55;31.04
31183;BME280;17813;0.000;0.000;2023-07-02T12:19:14;98668.28;;;28.43;30.84
31183;BME280;17813;0.000;0.000;2023-07-02T12:21:47;98675.31;;;28.50;31.48
31183;BME280;17813;0.000;0.000;2023-07-02T12:24:26;98676.69;;;28.41;31.14
31183;BME280;17813;0.000;0.000;2023-07-02T12:27:09;98659.31;;;28.72;31.27
31183;BME280;17813;0.000;0.000;2023-07-02T12:29:45;98666.44;;;28.73;30.51
31183;BME280;17813;0.000;0.000;2023-07-02T12:32:22;98676.56;;;28.36;30.23
31183;BME280;17813;0.000;0.000;2023-07-02T12:34:58;98688.47;;;27.99;31.58
31183;BME280;17813;0.000;0.000;2023-07-02T12:37:42;98695.06;;;27.91;31.92
31183;BME280;17813;0.000;0.000;2023-07-02T12:40:17;98701.25;;;27.80;31.52
31183;BME280;17813;0.000;0.000;2023-07-02T12:42:53;98689.91;;;27.83;32.12
31183;BME280;17813;0.000;0.000;2023-07-02T12:45:23;98698.47;;;27.86;31.84
31183;BME280;17813;0.000;0.000;2023-07-02T12:47:52;98700.63;;;27.78;31.35
31183;BME280;17813;0.000;0.000;2023-07-02T12:50:33;98701.63;;;27.83;31.83
31183;BME280;17813;0.000;0.000;2023-07-02T12:53:04;98686.06;;;28.09;31.44
31183;BME280;17813;0.000;0.000;2023-07-02T12:55:32;98693.34;;;28.15;30.64
31183;BME280;17813;0.000;0.000;2023-07-02T12:58:08;98689.25;;;28.06;30.90
31183;BME280;17813;0.000;0.000;2023-07-02T13:00:47;98704.84;;;28.17;30.58
31183;BME280;17813;0.000;0.000;2023-07-02T13:03:21;98688.13;;;28.50;30.41
31183;BME280;17813;0.000;0.000;2023-07-02T13:05:52;98685.03;;;28.65;30.28
31183;BME280;17813;0.000;0.000;2023-07-02T13:08:32;98685.25;;;28.45;29.90
31183;BME280;17813;0.000;0.000;2023-07-02T13:11:02;98694.41;;;28.14;29.68
31183;BME280;17813;0.000;0.000;2023-07-02T13:13:53;98694.59;;;27.76;30.28
31183;BME280;17813;0.000;0.000;2023-07-02T13:16:34;98697.94;;;27.46;30.42
31183;BME280;17813;0.000;0.000;2023-07-02T13:19:22;98701.63;;;27.34;31.36
31183;BME280;17813;0.000;0.000;2023-07-02T13:22:01;98696.28;;;27.45;31.86
31183;BME280;17813;0.000;0.000;2023-07-02T13:24:40;98702.03;;;27.62;32.02
31183;BME280;17813;0.000;0.000;2023-07-02T13:27:15;98692.97;;;28.11;32.24
31183;BME280;17813;0.000;0.000;2023-07-02T13:29:50;98693.28;;;28.58;31.46
31183;BME280;17813;0.000;0.000;2023-07-02T13:32:25;98694.00;;;29.02;30.52
31183;BME280;17813;0.000;0.000;2023-07-02T13:35:00;98695.31;;;29.11;29.60
31183;BME280;17813;0.000;0.000;2023-07-02T13:37:37;98676.72;;;29.31;30.52
31183;BME280;17813;0.000;0.000;2023-07-02T13:40:09;98692.09;;;29.44;30.56
31183;BME280;17813;0.000;0.000;2023-07-02T13:42:47;98690.69;;;29.53;29.69
31183;BME280;17813;0.000;0.000;2023-07-02T13:45:24;98700.41;;;29.07;29.26
31183;BME280;17813;0.000;0.000;2023-07-02T13:48:06;98718.00;;;28.63;30.48
31183;BME280;17813;0.000;0.000;2023-07-02T13:50:38;98721.00;;;28.55;30.33